sensor_id;sensor_type;location;lat;lon;timestamp;temperature;humidity
6357;DHT22;3211;53.452;-2.264;2023-04-16T00:00:59;10.10;99.90
6357;DHT22;3211;53.452;-2.264;2023-04-16T00:03:26;10.10;99.90
6357;DHT22;3211;53.452;-2.264;2023-04-16T00:05:53;10.10;99.90
6357;DHT22;3211;53.452;-2.264;2023-04-16T00:08:22;10.10;99.90
6357;DHT22;3211;53.452;-2.264;2023-04-16T00:10:50;10.10;99.90
6357;DHT22;3211;53.452;-2.264;2023-04-16T00:13:17;10.00;99.90
6357;DHT22;3211;53.452;-2.264;2023-04-16T00:15:44;10.10;99.90
6357;DHT22;3211;53.452;-2.264;2023-04-16T00:18:11;10.10;99.90
6357;DHT22;3211;53.452;-2.264;2023-04-16T00:20:38;10.10;99.90
6357;DHT22;3211;53.452;-2.264;2023-04-16T00:23:05;10.10;99.90
6357;DHT22;3211;53.452;-2.264;2023-04-16T00:25:33;10.10;99.90
6357;DHT22;3211;53.452;-2.264;2023-04-16T00:28:00;10.10;99.90
6357;DHT22;3211;53.452;-2.264;2023-04-16T00:30:27;10.10;99.90
6357;DHT22;3211;53.452;-2.264;2023-04-16T00:32:54;10.10;99.90
6357;DHT22;3211;53.452;-2.264;2023-04-16T00:35:21;10.10;99.90
6357;DHT22;3211;53.452;-2.264;2023-04-16T00:37:48;10.10;99.90
6357;DHT22;3211;53.452;-2.264;2023-04-16T00:40:15;10.10;99.90
6357;DHT22;3211;53.452;-2.264;2023-04-16T00:42:44;10.10;99.90
6357;DHT22;3211;53.452;-2.264;2023-04-16T00:45:11;10.00;99.90
6357;DHT22;3211;53.452;-2.264;2023-04-16T00:47:38;10.00;99.90
6357;DHT22;3211;53.452;-2.264;2023-04-16T00:50:06;10.00;99.90
6357;DHT22;3211;53.452;-2.264;2023-04-16T00:52:33;10.00;99.90
6357;DHT22;3211;53.452;-2.264;2023-04-16T00:55:00;10.00;99.90
6357;DHT22;3211;53.452;-2.264;2023-04-16T00:57:28;9.90;99.90
6357;DHT22;3211;53.452;-2.264;2023-04-16T00:59:57;9.90;99.90
6357;DHT22;3211;53.452;-2.264;2023-04-16T01:02:24;10.00;99.90
6357;DHT22;3211;53.452;-2.264;2023-04-16T01:04:51;10.00;99.90
6357;DHT22;3211;53.452;-2.264;2023-04-16T01:07:17;10.00;99.90
6357;DHT22;3211;53.452;-2.264;2023-04-16T01:09:44;10.00;99.90
6357;DHT22;3211;53.452;-2.264;2023-04-16T01:12:12;9.90;99.90
6357;DHT22;3211;53.452;-2.264;2023-04-16T01:14:39;9.90;99.90
6357;DHT22;3211;53.452;-2.264;2023-04-16T01:17:07;10.00;99.90
6357;DHT22;3211;53.452;-2.264;2023-04-16T01:19:34;10.00;99.90
6357;DHT22;3211;53.452;-2.264;2023-04-16T01:22:03;10.00;99.90
6357;DHT22;3211;53.452;-2.264;2023-04-16T01:24:31;10.00;99.90
6357;DHT22;3211;53.452;-2.264;2023-04-16T01:26:58;9.90;99.90
6357;DHT22;3211;53.452;-2.264;2023-04-16T01:29:25;9.90;99.90
6357;DHT22;3211;53.452;-2.264;2023-04-16T01:31:52;9.80;99.90
6357;DHT22;3211;53.452;-2.264;2023-04-16T01:34:19;9.80;99.90
6357;DHT22;3211;53.452;-2.264;2023-04-16T01:36:46;9.80;99.90
6357;DHT22;3211;53.452;-2.264;2023-04-16T01:39:14;9.80;99.90
6357;DHT22;3211;53.452;-2.264;2023-04-16T01:41:43;9.80;99.90
6357;DHT22;3211;53.452;-2.264;2023-04-16T01:44:11;9.80;99.90
6357;DHT22;3211;53.452;-2.264;2023-04-16T01:46:38;9.80;99.90
6357;DHT22;3211;53.452;-2.264;2023-04-16T01:49:05;9.80;99.90
6357;DHT22;3211;53.452;-2.264;2023-04-16T01:51:32;9.90;99.90
6357;DHT22;3211;53.452;-2.264;2023-04-16T01:54:00;9.90;99.90
6357;DHT22;3211;53.452;-2.264;2023-04-16T01:56:28;9.90;99.90
6357;DHT22;3211;53.452;-2.264;2023-04-16T01:58:55;9.90;99.90
6357;DHT22;3211;53.452;-2.264;2023-04-16T02:01:23;9.90;99.90
6357;DHT22;3211;53.452;-2.264;2023-04-16T02:03:50;9.90;99.90
6357;DHT22;3211;53.452;-2.264;2023-04-16T02:06:17;9.90;99.90
6357;DHT22;3211;53.452;-2.264;2023-04-16T02:08:44;9.80;99.90
6357;DHT22;3211;53.452;-2.264;2023-04-16T02:11:11;9.80;99.90
6357;DHT22;3211;53.452;-2.264;2023-04-16T02:13:39;9.80;99.90
6357;DHT22;3211;53.452;-2.264;2023-04-16T02:16:06;9.80;99.90
6357;DHT22;3211;53.452;-2.264;2023-04-16T02:18:33;9.80;99.90
6357;DHT22;3211;53.452;-2.264;2023-04-16T02:21:00;9.80;99.90
6357;DHT22;3211;53.452;-2.264;2023-04-16T02:23:27;9.80;99.90
6357;DHT22;3211;53.452;-2.264;2023-04-16T02:25:54;9.80;99.90
6357;DHT22;3211;53.452;-2.264;2023-04-16T02:28:21;9.80;99.90
6357;DHT22;3211;53.452;-2.264;2023-04-16T02:30:49;9.80;99.90
6357;DHT22;3211;53.452;-2.264;2023-04-16T02:33:16;9.80;99.90
6357;DHT22;3211;53.452;-2.264;2023-04-16T02:35:44;9.80;99.90
6357;DHT22;3211;53.452;-2.264;2023-04-16T02:38:13;9.80;99.90
6357;DHT22;3211;53.452;-2.264;2023-04-16T02:40:40;9.90;99.90
6357;DHT22;3211;53.452;-2.264;2023-04-16T02:43:08;10.00;99.90
6357;DHT22;3211;53.452;-2.264;2023-04-16T02:45:35;10.00;99.90
6357;DHT22;3211;53.452;-2.264;2023-04-16T02:48:03;10.00;99.90
6357;DHT22;3211;53.452;-2.264;2023-04-16T02:50:31;9.90;99.90
6357;DHT22;3211;53.452;-2.264;2023-04-16T02:52:58;9.80;99.90
6357;DHT22;3211;53.452;-2.264;2023-04-16T02:55:25;9.80;99.90
6357;DHT22;3211;53.452;-2.264;2023-04-16T02:57:53;9.70;99.90
6357;DHT22;3211;53.452;-2.264;2023-04-16T03:00:20;9.70;99.90
6357;DHT22;3211;53.452;-2.264;2023-04-16T03:02:47;9.80;99.90
6357;DHT22;3211;53.452;-2.264;2023-04-16T03:05:16;9.80;99.90
6357;DHT22;3211;53.452;-2.264;2023-04-16T03:07:43;9.80;99.90
6357;DHT22;3211;53.452;-2.264;2023-04-16T03:10:10;9.80;99.90
6357;DHT22;3211;53.452;-2.264;2023-04-16T03:12:38;9.80;99.90
6357;DHT22;3211;53.452;-2.264;2023-04-16T03:15:06;9.80;99.90
6357;DHT22;3211;53.452;-2.264;2023-04-16T03:17:33;9.70;99.90
6357;DHT22;3211;53.452;-2.264;2023-04-16T03:20:00;9.70;99.90
6357;DHT22;3211;53.452;-2.264;2023-04-16T03:22:28;9.80;99.90
6357;DHT22;3211;53.452;-2.264;2023-04-16T03:24:55;9.70;99.90
6357;DHT22;3211;53.452;-2.264;2023-04-16T03:27:22;9.70;99.90
6357;DHT22;3211;53.452;-2.264;2023-04-16T03:29:49;9.70;99.90
6357;DHT22;3211;53.452;-2.264;2023-04-16T03:32:16;9.70;99.90
6357;DHT22;3211;53.452;-2.264;2023-04-16T03:34:44;9.70;99.90
6357;DHT22;3211;53.452;-2.264;2023-04-16T03:37:11;9.70;99.90
6357;DHT22;3211;53.452;-2.264;2023-04-16T03:39:39;9.70;99.90
6357;DHT22;3211;53.452;-2.264;2023-04-16T03:42:06;9.60;99.90
6357;DHT22;3211;53.452;-2.264;2023-04-16T03:44:33;9.60;99.90
6357;DHT22;3211;53.452;-2.264;2023-04-16T03:47:00;9.60;99.90
6357;DHT22;3211;53.452;-2.264;2023-04-16T03:49:27;9.60;99.90
6357;DHT22;3211;53.452;-2.264;2023-04-16T03:51:54;9.60;99.90
6357;DHT22;3211;53.452;-2.264;2023-04-16T03:54:21;9.60;99.90
6357;DHT22;3211;53.452;-2.264;2023-04-16T03:56:49;9.50;99.90
6357;DHT22;3211;53.452;-2.264;2023-04-16T03:59:16;9.60;99.90
6357;DHT22;3211;53.452;-2.264;2023-04-16T04:01:43;9.60;99.90
6357;DHT22;3211;53.452;-2.264;2023-04-16T04:04:10;9.60;99.90
6357;DHT22;3211;53.452;-2.264;2023-04-16T04:06:37;9.60;99.90
6357;DHT22;3211;53.452;-2.264;2023-04-16T04:09:05;9.60;99.90
6357;DHT22;3211;53.452;-2.264;2023-04-16T04:11:32;9.60;99.90
6357;DHT22;3211;53.452;-2.264;2023-04-16T04:14:00;9.50;99.90
6357;DHT22;3211;53.452;-2.264;2023-04-16T04:16:27;9.50;99.90
6357;DHT22;3211;53.452;-2.264;2023-04-16T04:18:54;9.50;99.90
6357;DHT22;3211;53.452;-2.264;2023-04-16T04:21:21;9.50;99.90
6357;DHT22;3211;53.452;-2.264;2023-04-16T04:23:48;9.40;99.90
6357;DHT22;3211;53.452;-2.264;2023-04-16T04:26:14;9.40;99.90
6357;DHT22;3211;53.452;-2.264;2023-04-16T04:28:41;9.40;99.90
6357;DHT22;3211;53.452;-2.264;2023-04-16T04:31:10;9.30;99.90
6357;DHT22;3211;53.452;-2.264;2023-04-16T04:33:37;9.40;99.90
6357;DHT22;3211;53.452;-2.264;2023-04-16T04:36:04;9.40;99.90
6357;DHT22;3211;53.452;-2.264;2023-04-16T04:38:31;9.40;99.90
6357;DHT22;3211;53.452;-2.264;2023-04-16T04:40:58;9.40;99.90
6357;DHT22;3211;53.452;-2.264;2023-04-16T04:43:25;9.40;99.90
6357;DHT22;3211;53.452;-2.264;2023-04-16T04:45:52;9.50;99.90
6357;DHT22;3211;53.452;-2.264;2023-04-16T04:48:20;9.40;99.90
6357;DHT22;3211;53.452;-2.264;2023-04-16T04:50:51;9.40;99.90
6357;DHT22;3211;53.452;-2.264;2023-04-16T04:53:18;9.40;99.90
6357;DHT22;3211;53.452;-2.264;2023-04-16T04:55:45;9.50;99.90
6357;DHT22;3211;53.452;-2.264;2023-04-16T04:58:12;9.50;99.90
6357;DHT22;3211;53.452;-2.264;2023-04-16T05:00:39;9.50;99.90
6357;DHT22;3211;53.452;-2.264;2023-04-16T05:03:09;9.50;99.90
6357;DHT22;3211;53.452;-2.264;2023-04-16T05:05:38;9.50;99.90
6357;DHT22;3211;53.452;-2.264;2023-04-16T05:08:05;9.50;99.90
6357;DHT22;3211;53.452;-2.264;2023-04-16T05:10:32;9.50;99.90
6357;DHT22;3211;53.452;-2.264;2023-04-16T05:12:59;9.50;99.90
6357;DHT22;3211;53.452;-2.264;2023-04-16T05:15:26;9.50;99.90
6357;DHT22;3211;53.452;-2.264;2023-04-16T05:17:53;9.50;99.90
6357;DHT22;3211;53.452;-2.264;2023-04-16T05:20:21;9.50;99.90
6357;DHT22;3211;53.452;-2.264;2023-04-16T05:22:50;9.50;99.90
6357;DHT22;3211;53.452;-2.264;2023-04-16T05:25:17;9.50;99.90
6357;DHT22;3211;53.452;-2.264;2023-04-16T05:27:43;9.50;99.90
6357;DHT22;3211;53.452;-2.264;2023-04-16T05:30:11;9.50;99.90
6357;DHT22;3211;53.452;-2.264;2023-04-16T05:32:38;9.60;99.90
6357;DHT22;3211;53.452;-2.264;2023-04-16T05:35:06;9.50;99.90
6357;DHT22;3211;53.452;-2.264;2023-04-16T05:37:34;9.50;99.90
6357;DHT22;3211;53.452;-2.264;2023-04-16T05:40:02;9.50;99.90
6357;DHT22;3211;53.452;-2.264;2023-04-16T05:42:29;9.50;99.90
6357;DHT22;3211;53.452;-2.264;2023-04-16T05:44:56;9.50;99.90
6357;DHT22;3211;53.452;-2.264;2023-04-16T05:47:23;9.50;99.90
6357;DHT22;3211;53.452;-2.264;2023-04-16T05:49:50;9.50;99.90
6357;DHT22;3211;53.452;-2.264;2023-04-16T05:52:17;9.40;99.90
6357;DHT22;3211;53.452;-2.264;2023-04-16T05:54:44;9.40;99.90
6357;DHT22;3211;53.452;-2.264;2023-04-16T05:57:12;9.40;99.90
6357;DHT22;3211;53.452;-2.264;2023-04-16T05:59:39;9.40;99.90
6357;DHT22;3211;53.452;-2.264;2023-04-16T06:02:06;9.40;99.90
6357;DHT22;3211;53.452;-2.264;2023-04-16T06:04:33;9.30;99.90
6357;DHT22;3211;53.452;-2.264;2023-04-16T06:07:01;9.30;99.90
6357;DHT22;3211;53.452;-2.264;2023-04-16T06:09:29;9.40;99.90
6357;DHT22;3211;53.452;-2.264;2023-04-16T06:11:56;9.40;99.90
6357;DHT22;3211;53.452;-2.264;2023-04-16T06:14:24;9.30;99.90
6357;DHT22;3211;53.452;-2.264;2023-04-16T06:16:51;9.40;99.90
6357;DHT22;3211;53.452;-2.264;2023-04-16T06:19:18;9.40;99.90
6357;DHT22;3211;53.452;-2.264;2023-04-16T06:21:45;9.50;99.90
6357;DHT22;3211;53.452;-2.264;2023-04-16T06:24:12;9.60;99.90
6357;DHT22;3211;53.452;-2.264;2023-04-16T06:26:39;9.50;99.90
6357;DHT22;3211;53.452;-2.264;2023-04-16T06:29:05;9.50;99.90
6357;DHT22;3211;53.452;-2.264;2023-04-16T06:31:34;9.50;99.90
6357;DHT22;3211;53.452;-2.264;2023-04-16T06:34:01;9.50;99.90
6357;DHT22;3211;53.452;-2.264;2023-04-16T06:36:28;9.60;99.90
6357;DHT22;3211;53.452;-2.264;2023-04-16T06:38:55;9.60;99.90
6357;DHT22;3211;53.452;-2.264;2023-04-16T06:41:22;9.60;99.90
6357;DHT22;3211;53.452;-2.264;2023-04-16T06:43:51;9.70;99.90
6357;DHT22;3211;53.452;-2.264;2023-04-16T06:46:18;9.70;99.90
6357;DHT22;3211;53.452;-2.264;2023-04-16T06:48:46;9.70;99.90
6357;DHT22;3211;53.452;-2.264;2023-04-16T06:51:13;9.70;99.90
6357;DHT22;3211;53.452;-2.264;2023-04-16T06:53:40;9.80;99.90
6357;DHT22;3211;53.452;-2.264;2023-04-16T06:56:07;9.70;99.90
6357;DHT22;3211;53.452;-2.264;2023-04-16T06:58:34;9.60;99.90
6357;DHT22;3211;53.452;-2.264;2023-04-16T07:01:01;9.80;99.90
6357;DHT22;3211;53.452;-2.264;2023-04-16T07:03:28;9.70;99.90
6357;DHT22;3211;53.452;-2.264;2023-04-16T07:05:56;9.70;99.90
6357;DHT22;3211;53.452;-2.264;2023-04-16T07:08:23;9.80;99.90
6357;DHT22;3211;53.452;-2.264;2023-04-16T07:10:50;9.70;99.90
6357;DHT22;3211;53.452;-2.264;2023-04-16T07:13:18;9.70;99.90
6357;DHT22;3211;53.452;-2.264;2023-04-16T07:15:45;9.70;99.90
6357;DHT22;3211;53.452;-2.264;2023-04-16T07:18:12;9.70;99.90
6357;DHT22;3211;53.452;-2.264;2023-04-16T07:20:40;9.90;99.90
6357;DHT22;3211;53.452;-2.264;2023-04-16T07:23:08;9.90;99.90
6357;DHT22;3211;53.452;-2.264;2023-04-16T07:25:35;9.90;99.90
6357;DHT22;3211;53.452;-2.264;2023-04-16T07:28:02;10.00;99.90
6357;DHT22;3211;53.452;-2.264;2023-04-16T07:30:29;9.80;99.90
6357;DHT22;3211;53.452;-2.264;2023-04-16T07:32:59;9.80;99.90
6357;DHT22;3211;53.452;-2.264;2023-04-16T07:35:26;9.80;99.90
6357;DHT22;3211;53.452;-2.264;2023-04-16T07:37:53;9.80;99.90
6357;DHT22;3211;53.452;-2.264;2023-04-16T07:40:21;9.70;99.90
6357;DHT22;3211;53.452;-2.264;2023-04-16T07:42:48;9.80;99.90
6357;DHT22;3211;53.452;-2.264;2023-04-16T07:45:16;9.80;99.90
6357;DHT22;3211;53.452;-2.264;2023-04-16T07:47:43;9.90;99.90
6357;DHT22;3211;53.452;-2.264;2023-04-16T07:50:11;9.80;99.90
6357;DHT22;3211;53.452;-2.264;2023-04-16T07:52:38;9.70;99.90
6357;DHT22;3211;53.452;-2.264;2023-04-16T07:55:06;9.70;99.90
6357;DHT22;3211;53.452;-2.264;2023-04-16T07:57:35;9.60;99.90
6357;DHT22;3211;53.452;-2.264;2023-04-16T08:00:02;9.70;99.90
6357;DHT22;3211;53.452;-2.264;2023-04-16T08:02:31;9.80;99.90
6357;DHT22;3211;53.452;-2.264;2023-04-16T08:04:58;9.90;99.90
6357;DHT22;3211;53.452;-2.264;2023-04-16T08:07:25;9.90;99.90
6357;DHT22;3211;53.452;-2.264;2023-04-16T08:09:52;9.90;99.90
6357;DHT22;3211;53.452;-2.264;2023-04-16T08:12:19;9.90;99.90
6357;DHT22;3211;53.452;-2.264;2023-04-16T08:14:47;9.90;99.90
6357;DHT22;3211;53.452;-2.264;2023-04-16T08:17:15;9.80;99.90
6357;DHT22;3211;53.452;-2.264;2023-04-16T08:19:42;9.90;99.90
6357;DHT22;3211;53.452;-2.264;2023-04-16T08:22:10;9.80;99.90
6357;DHT22;3211;53.452;-2.264;2023-04-16T08:24:37;9.80;99.90
6357;DHT22;3211;53.452;-2.264;2023-04-16T08:27:04;9.60;99.90
6357;DHT22;3211;53.452;-2.264;2023-04-16T08:29:31;9.60;99.90
6357;DHT22;3211;53.452;-2.264;2023-04-16T08:31:59;9.60;99.90
6357;DHT22;3211;53.452;-2.264;2023-04-16T08:34:26;9.60;99.90
6357;DHT22;3211;53.452;-2.264;2023-04-16T08:36:53;9.60;99.90
6357;DHT22;3211;53.452;-2.264;2023-04-16T08:39:20;9.50;99.90
6357;DHT22;3211;53.452;-2.264;2023-04-16T08:41:48;9.50;99.90
6357;DHT22;3211;53.452;-2.264;2023-04-16T08:44:19;9.50;99.90
6357;DHT22;3211;53.452;-2.264;2023-04-16T08:46:47;9.40;99.90
6357;DHT22;3211;53.452;-2.264;2023-04-16T08:49:16;9.60;99.90
6357;DHT22;3211;53.452;-2.264;2023-04-16T08:51:48;9.50;99.90
6357;DHT22;3211;53.452;-2.264;2023-04-16T08:54:25;9.60;99.90
6357;DHT22;3211;53.452;-2.264;2023-04-16T08:56:57;9.60;99.90
6357;DHT22;3211;53.452;-2.264;2023-04-16T08:59:24;9.50;99.90
6357;DHT22;3211;53.452;-2.264;2023-04-16T09:01:52;9.60;99.90
6357;DHT22;3211;53.452;-2.264;2023-04-16T09:04:24;9.60;99.90
6357;DHT22;3211;53.452;-2.264;2023-04-16T09:06:53;9.50;99.90
6357;DHT22;3211;53.452;-2.264;2023-04-16T09:09:20;9.60;99.90
6357;DHT22;3211;53.452;-2.264;2023-04-16T09:11:50;9.70;99.90
6357;DHT22;3211;53.452;-2.264;2023-04-16T09:14:17;9.60;99.90
6357;DHT22;3211;53.452;-2.264;2023-04-16T09:16:45;9.90;99.90
6357;DHT22;3211;53.452;-2.264;2023-04-16T09:19:13;9.90;99.90
6357;DHT22;3211;53.452;-2.264;2023-04-16T09:21:43;10.00;99.90
6357;DHT22;3211;53.452;-2.264;2023-04-16T09:24:11;9.90;99.90
6357;DHT22;3211;53.452;-2.264;2023-04-16T09:26:40;9.70;99.90
6357;DHT22;3211;53.452;-2.264;2023-04-16T09:29:07;9.60;99.90
6357;DHT22;3211;53.452;-2.264;2023-04-16T09:31:35;9.70;99.90
6357;DHT22;3211;53.452;-2.264;2023-04-16T09:34:03;9.80;99.90
6357;DHT22;3211;53.452;-2.264;2023-04-16T09:36:31;9.80;99.90
6357;DHT22;3211;53.452;-2.264;2023-04-16T09:39:00;9.90;99.90
6357;DHT22;3211;53.452;-2.264;2023-04-16T09:41:29;10.00;99.90
6357;DHT22;3211;53.452;-2.264;2023-04-16T09:43:58;10.00;99.90
6357;DHT22;3211;53.452;-2.264;2023-04-16T09:46:30;10.10;99.90
6357;DHT22;3211;53.452;-2.264;2023-04-16T09:48:57;10.10;99.90
6357;DHT22;3211;53.452;-2.264;2023-04-16T09:51:24;9.90;99.90
6357;DHT22;3211;53.452;-2.264;2023-04-16T09:53:52;10.00;99.90
6357;DHT22;3211;53.452;-2.264;2023-04-16T09:56:24;10.00;99.90
6357;DHT22;3211;53.452;-2.264;2023-04-16T09:58:56;10.20;99.90
6357;DHT22;3211;53.452;-2.264;2023-04-16T10:01:23;10.20;99.90
6357;DHT22;3211;53.452;-2.264;2023-04-16T10:03:53;10.10;99.90
6357;DHT22;3211;53.452;-2.264;2023-04-16T10:06:21;10.00;99.90
6357;DHT22;3211;53.452;-2.264;2023-04-16T10:08:50;10.00;99.90
6357;DHT22;3211;53.452;-2.264;2023-04-16T10:11:18;9.90;99.90
6357;DHT22;3211;53.452;-2.264;2023-04-16T10:13:48;10.00;99.90
6357;DHT22;3211;53.452;-2.264;2023-04-16T10:16:15;9.80;99.90
6357;DHT22;3211;53.452;-2.264;2023-04-16T10:18:43;10.00;99.90
6357;DHT22;3211;53.452;-2.264;2023-04-16T10:21:11;10.00;99.90
6357;DHT22;3211;53.452;-2.264;2023-04-16T10:23:40;10.10;99.90
6357;DHT22;3211;53.452;-2.264;2023-04-16T10:26:08;10.10;99.90
6357;DHT22;3211;53.452;-2.264;2023-04-16T10:28:36;10.00;99.90
6357;DHT22;3211;53.452;-2.264;2023-04-16T10:31:06;10.00;99.90
6357;DHT22;3211;53.452;-2.264;2023-04-16T10:33:35;9.90;99.90
6357;DHT22;3211;53.452;-2.264;2023-04-16T10:36:09;9.90;99.90
6357;DHT22;3211;53.452;-2.264;2023-04-16T10:38:40;9.90;99.90
6357;DHT22;3211;53.452;-2.264;2023-04-16T10:41:10;9.80;99.90
6357;DHT22;3211;53.452;-2.264;2023-04-16T10:43:42;9.80;99.90
6357;DHT22;3211;53.452;-2.264;2023-04-16T10:46:20;10.00;99.90
6357;DHT22;3211;53.452;-2.264;2023-04-16T10:48:51;10.00;99.90
6357;DHT22;3211;53.452;-2.264;2023-04-16T10:51:24;10.00;99.90
6357;DHT22;3211;53.452;-2.264;2023-04-16T10:53:53;10.10;99.90
6357;DHT22;3211;53.452;-2.264;2023-04-16T10:56:24;10.10;99.90
6357;DHT22;3211;53.452;-2.264;2023-04-16T10:58:52;10.10;99.90
6357;DHT22;3211;53.452;-2.264;2023-04-16T11:01:29;10.30;99.90
6357;DHT22;3211;53.452;-2.264;2023-04-16T11:03:58;10.40;99.90
6357;DHT22;3211;53.452;-2.264;2023-04-16T11:06:27;10.30;99.90
6357;DHT22;3211;53.452;-2.264;2023-04-16T11:08:54;10.30;99.90
6357;DHT22;3211;53.452;-2.264;2023-04-16T11:11:21;10.20;99.90
6357;DHT22;3211;53.452;-2.264;2023-04-16T11:13:49;10.10;99.90
6357;DHT22;3211;53.452;-2.264;2023-04-16T11:16:20;10.10;99.90
6357;DHT22;3211;53.452;-2.264;2023-04-16T11:18:48;10.20;99.90
6357;DHT22;3211;53.452;-2.264;2023-04-16T11:21:16;10.40;99.90
6357;DHT22;3211;53.452;-2.264;2023-04-16T11:23:47;10.40;99.90
6357;DHT22;3211;53.452;-2.264;2023-04-16T11:26:23;10.50;99.90
6357;DHT22;3211;53.452;-2.264;2023-04-16T11:28:50;10.60;99.90
6357;DHT22;3211;53.452;-2.264;2023-04-16T11:31:17;10.50;99.90
6357;DHT22;3211;53.452;-2.264;2023-04-16T11:33:44;10.40;99.90
6357;DHT22;3211;53.452;-2.264;2023-04-16T11:36:12;10.50;99.90
6357;DHT22;3211;53.452;-2.264;2023-04-16T11:38:40;10.50;99.90
6357;DHT22;3211;53.452;-2.264;2023-04-16T11:41:08;10.60;99.90
6357;DHT22;3211;53.452;-2.264;2023-04-16T11:43:35;10.60;99.90
6357;DHT22;3211;53.452;-2.264;2023-04-16T11:46:04;10.50;99.90
6357;DHT22;3211;53.452;-2.264;2023-04-16T11:48:48;10.60;99.90
6357;DHT22;3211;53.452;-2.264;2023-04-16T11:51:17;10.70;99.90
6357;DHT22;3211;53.452;-2.264;2023-04-16T11:53:48;10.70;99.90
6357;DHT22;3211;53.452;-2.264;2023-04-16T11:56:24;10.70;99.90
6357;DHT22;3211;53.452;-2.264;2023-04-16T11:59:06;10.90;99.90
6357;DHT22;3211;53.452;-2.264;2023-04-16T12:01:36;10.80;99.90
6357;DHT22;3211;53.452;-2.264;2023-04-16T12:04:04;10.60;99.90
6357;DHT22;3211;53.452;-2.264;2023-04-16T12:06:32;10.60;99.90
6357;DHT22;3211;53.452;-2.264;2023-04-16T12:08:59;10.60;99.90
6357;DHT22;3211;53.452;-2.264;2023-04-16T12:11:39;10.60;99.90
6357;DHT22;3211;53.452;-2.264;2023-04-16T12:14:06;10.80;99.90
6357;DHT22;3211;53.452;-2.264;2023-04-16T12:16:34;10.70;99.90
6357;DHT22;3211;53.452;-2.264;2023-04-16T12:19:02;10.70;99.90
6357;DHT22;3211;53.452;-2.264;2023-04-16T12:21:38;10.70;99.90
6357;DHT22;3211;53.452;-2.264;2023-04-16T12:24:07;10.70;99.90
6357;DHT22;3211;53.452;-2.264;2023-04-16T12:26:40;10.80;99.90
6357;DHT22;3211;53.452;-2.264;2023-04-16T12:29:17;10.90;99.90
6357;DHT22;3211;53.452;-2.264;2023-04-16T12:31:45;10.80;99.90
6357;DHT22;3211;53.452;-2.264;2023-04-16T12:34:12;10.80;99.90
6357;DHT22;3211;53.452;-2.264;2023-04-16T12:36:41;10.80;99.90
6357;DHT22;3211;53.452;-2.264;2023-04-16T12:39:08;10.80;99.90
6357;DHT22;3211;53.452;-2.264;2023-04-16T12:41:37;10.70;99.90
6357;DHT22;3211;53.452;-2.264;2023-04-16T12:44:05;10.90;99.90
6357;DHT22;3211;53.452;-2.264;2023-04-16T12:46:34;11.00;99.90
6357;DHT22;3211;53.452;-2.264;2023-04-16T12:49:02;11.10;99.90
6357;DHT22;3211;53.452;-2.264;2023-04-16T12:51:29;11.30;99.90
6357;DHT22;3211;53.452;-2.264;2023-04-16T12:53:58;11.30;99.90
6357;DHT22;3211;53.452;-2.264;2023-04-16T12:56:26;11.20;99.90
6357;DHT22;3211;53.452;-2.264;2023-04-16T12:58:53;11.20;99.90
6357;DHT22;3211;53.452;-2.264;2023-04-16T13:01:20;11.20;99.90
6357;DHT22;3211;53.452;-2.264;2023-04-16T13:03:47;11.20;99.90
6357;DHT22;3211;53.452;-2.264;2023-04-16T13:06:15;11.40;99.90
6357;DHT22;3211;53.452;-2.264;2023-04-16T13:08:43;11.30;99.90
6357;DHT22;3211;53.452;-2.264;2023-04-16T13:11:12;11.40;99.90
6357;DHT22;3211;53.452;-2.264;2023-04-16T13:13:38;11.40;99.90
6357;DHT22;3211;53.452;-2.264;2023-04-16T13:16:05;11.40;99.90
6357;DHT22;3211;53.452;-2.264;2023-04-16T13:18:33;11.50;99.90
6357;DHT22;3211;53.452;-2.264;2023-04-16T13:21:01;11.50;99.90
6357;DHT22;3211;53.452;-2.264;2023-04-16T13:23:28;11.40;99.90
6357;DHT22;3211;53.452;-2.264;2023-04-16T13:25:55;11.50;99.90
6357;DHT22;3211;53.452;-2.264;2023-04-16T13:28:23;11.50;99.90
6357;DHT22;3211;53.452;-2.264;2023-04-16T13:30:51;11.30;99.90
6357;DHT22;3211;53.452;-2.264;2023-04-16T13:33:18;11.40;99.90
6357;DHT22;3211;53.452;-2.264;2023-04-16T13:35:45;11.40;99.90
6357;DHT22;3211;53.452;-2.264;2023-04-16T13:38:12;11.40;99.90
6357;DHT22;3211;53.452;-2.264;2023-04-16T13:40:39;11.40;99.90
6357;DHT22;3211;53.452;-2.264;2023-04-16T13:43:06;11.60;99.90
6357;DHT22;3211;53.452;-2.264;2023-04-16T13:45:36;11.60;99.90
6357;DHT22;3211;53.452;-2.264;2023-04-16T13:48:03;11.50;99.90
6357;DHT22;3211;53.452;-2.264;2023-04-16T13:50:30;11.50;99.90
6357;DHT22;3211;53.452;-2.264;2023-04-16T13:52:57;11.60;99.90
6357;DHT22;3211;53.452;-2.264;2023-04-16T13:55:24;11.50;99.90
6357;DHT22;3211;53.452;-2.264;2023-04-16T13:57:51;11.50;99.90
6357;DHT22;3211;53.452;-2.264;2023-04-16T14:00:18;11.50;99.90
6357;DHT22;3211;53.452;-2.264;2023-04-16T14:02:46;11.60;99.90
6357;DHT22;3211;53.452;-2.264;2023-04-16T14:05:14;11.60;99.90
6357;DHT22;3211;53.452;-2.264;2023-04-16T14:07:41;11.60;99.90
6357;DHT22;3211;53.452;-2.264;2023-04-16T14:10:08;11.80;99.90
6357;DHT22;3211;53.452;-2.264;2023-04-16T14:12:36;11.80;99.90
6357;DHT22;3211;53.452;-2.264;2023-04-16T14:15:04;11.80;99.90
6357;DHT22;3211;53.452;-2.264;2023-04-16T14:17:33;11.60;99.90
6357;DHT22;3211;53.452;-2.264;2023-04-16T14:20:02;11.60;99.90
6357;DHT22;3211;53.452;-2.264;2023-04-16T14:22:29;11.60;99.90
6357;DHT22;3211;53.452;-2.264;2023-04-16T14:24:56;11.70;99.90
6357;DHT22;3211;53.452;-2.264;2023-04-16T14:27:23;11.70;99.90
6357;DHT22;3211;53.452;-2.264;2023-04-16T14:29:50;11.70;99.90
6357;DHT22;3211;53.452;-2.264;2023-04-16T14:32:17;11.70;99.90
6357;DHT22;3211;53.452;-2.264;2023-04-16T14:34:44;11.70;99.90
6357;DHT22;3211;53.452;-2.264;2023-04-16T14:37:13;11.80;99.90
6357;DHT22;3211;53.452;-2.264;2023-04-16T14:39:40;11.80;99.90
6357;DHT22;3211;53.452;-2.264;2023-04-16T14:42:07;11.80;99.90
6357;DHT22;3211;53.452;-2.264;2023-04-16T14:44:34;11.90;99.90
6357;DHT22;3211;53.452;-2.264;2023-04-16T14:47:01;11.90;99.90
6357;DHT22;3211;53.452;-2.264;2023-04-16T14:49:28;11.90;99.90
6357;DHT22;3211;53.452;-2.264;2023-04-16T14:51:56;11.90;99.90
6357;DHT22;3211;53.452;-2.264;2023-04-16T14:54:24;12.00;99.90
6357;DHT22;3211;53.452;-2.264;2023-04-16T14:56:52;12.10;99.90
6357;DHT22;3211;53.452;-2.264;2023-04-16T14:59:19;12.00;99.90
6357;DHT22;3211;53.452;-2.264;2023-04-16T15:01:46;12.00;99.90
6357;DHT22;3211;53.452;-2.264;2023-04-16T15:04:13;12.00;99.90
6357;DHT22;3211;53.452;-2.264;2023-04-16T15:06:40;12.10;99.90
6357;DHT22;3211;53.452;-2.264;2023-04-16T15:09:07;12.10;99.90
6357;DHT22;3211;53.452;-2.264;2023-04-16T15:11:35;12.10;99.90
6357;DHT22;3211;53.452;-2.264;2023-04-16T15:14:02;12.10;99.90
6357;DHT22;3211;53.452;-2.264;2023-04-16T15:16:30;12.10;99.90
6357;DHT22;3211;53.452;-2.264;2023-04-16T15:18:57;12.20;99.90
6357;DHT22;3211;53.452;-2.264;2023-04-16T15:21:24;12.30;99.90
6357;DHT22;3211;53.452;-2.264;2023-04-16T15:23:52;12.20;99.90
6357;DHT22;3211;53.452;-2.264;2023-04-16T15:26:19;12.10;99.90
6357;DHT22;3211;53.452;-2.264;2023-04-16T15:28:48;12.20;99.90
6357;DHT22;3211;53.452;-2.264;2023-04-16T15:31:15;12.10;99.90
6357;DHT22;3211;53.452;-2.264;2023-04-16T15:33:45;12.20;99.90
6357;DHT22;3211;53.452;-2.264;2023-04-16T15:36:12;12.20;99.90
6357;DHT22;3211;53.452;-2.264;2023-04-16T15:38:39;12.20;99.90
6357;DHT22;3211;53.452;-2.264;2023-04-16T15:41:06;12.20;99.90
6357;DHT22;3211;53.452;-2.264;2023-04-16T15:43:34;12.30;99.90
6357;DHT22;3211;53.452;-2.264;2023-04-16T15:46:02;12.30;99.90
6357;DHT22;3211;53.452;-2.264;2023-04-16T15:48:29;12.30;99.90
6357;DHT22;3211;53.452;-2.264;2023-04-16T15:50:56;12.20;99.90
6357;DHT22;3211;53.452;-2.264;2023-04-16T15:53:23;12.20;99.90
6357;DHT22;3211;53.452;-2.264;2023-04-16T15:55:50;12.20;99.90
6357;DHT22;3211;53.452;-2.264;2023-04-16T15:58:18;12.30;99.90